Time;durP1;ratioP1;P1;durP2;ratioP2;P2;SDS_P1;SDS_P2;PMS_P1;PMS_P2;Temp;Humidity;BMP_temperature;BMP_pressure;BME280_temperature;BME280_humidity;BME280_pressure;Samples;Min_cycle;Max_cycle;Signal;HPM_P1;HPM_P2
2021/08/16 00:00:23;;;;;;;0.10;0.10;;;;;;;14.08;66.71;98739.38;5107437;28;20036;-63
2021/08/16 00:02:49;;;;;;;0.10;0.10;;;;;;;14.07;66.73;98729.41;5117353;28;20044;-64
2021/08/16 00:05:16;;;;;;;0.32;0.32;;;;;;;14.04;66.76;98732.69;5117216;28;20027;-63
2021/08/16 00:07:45;;;;;;;0.22;0.22;;;;;;;14.04;66.52;98732.69;5117721;28;20020;-64
2021/08/16 00:10:15;;;;;;;0.65;0.30;;;;;;;14.04;66.60;98732.69;5117972;28;20061;-63
2021/08/16 00:12:42;;;;;;;0.10;0.10;;;;;;;14.04;66.56;98738.22;5101875;28;20574;-64
2021/08/16 00:15:08;;;;;;;0.10;0.10;;;;;;;14.04;66.68;98732.69;5093557;28;20067;-64
2021/08/16 00:17:34;;;;;;;0.20;0.20;;;;;;;14.05;66.78;98737.13;5093510;28;20048;-64
2021/08/16 00:20:00;;;;;;;0.43;0.25;;;;;;;14.05;66.55;98731.63;5093447;28;20044;-65
2021/08/16 00:22:26;;;;;;;0.30;0.30;;;;;;;14.06;66.70;98739.63;5075081;28;20399;-66
2021/08/16 00:24:51;;;;;;;0.10;0.10;;;;;;;14.08;66.91;98739.38;5092941;28;20055;-66
2021/08/16 00:27:17;;;;;;;0.10;0.10;;;;;;;14.11;66.75;98734.16;5092845;28;20043;-66
2021/08/16 00:29:43;;;;;;;0.20;0.20;;;;;;;14.14;66.54;98733.63;5092938;28;20122;-66
2021/08/16 00:32:10;;;;;;;0.35;0.35;;;;;;;14.15;66.52;98740.84;5093275;28;20051;-65
2021/08/16 00:34:35;;;;;;;4.10;0.47;;;;;;;14.15;66.57;98735.31;5092209;28;20085;-66
2021/08/16 00:37:01;;;;;;;0.20;0.20;;;;;;;14.17;66.80;98738.63;5092786;28;20094;-65
2021/08/16 00:39:27;;;;;;;0.63;0.63;;;;;;;14.18;66.69;98739.50;5093287;28;20453;-65
2021/08/16 00:41:53;;;;;;;0.10;0.10;;;;;;;14.20;66.66;98738.09;5092762;28;20441;-65
2021/08/16 00:44:19;;;;;;;0.28;0.28;;;;;;;14.23;66.55;98747.00;5092576;28;20068;-66
2021/08/16 00:46:45;;;;;;;0.20;0.20;;;;;;;14.26;66.54;98741.75;5092587;28;20063;-66
2021/08/16 00:49:10;;;;;;;0.20;0.20;;;;;;;14.31;66.41;98744.59;5092624;28;20040;-65
2021/08/16 00:51:37;;;;;;;0.28;0.28;;;;;;;14.37;66.56;98738.00;5092439;28;20059;-66
2021/08/16 00:54:05;;;;;;;0.20;0.20;;;;;;;14.42;66.46;98733.63;5092101;28;20036;-65
2021/08/16 00:56:32;;;;;;;0.30;0.30;;;;;;;14.45;66.44;98731.19;5092672;28;20101;-65
2021/08/16 00:58:59;;;;;;;0.30;0.30;;;;;;;14.50;66.09;98734.00;5092586;28;20336;-64
2021/08/16 01:01:26;;;;;;;0.63;0.63;;;;;;;14.58;66.36;98740.13;5092182;28;20066;-65
2021/08/16 01:03:52;;;;;;;0.57;0.40;;;;;;;14.64;66.16;98737.16;5092231;28;20401;-62
2021/08/16 01:06:19;;;;;;;0.30;0.30;;;;;;;14.71;66.01;98742.50;5092459;28;20043;-63
2021/08/16 01:08:50;;;;;;;0.20;0.20;;;;;;;14.79;65.97;98733.69;5092724;28;20040;-64
2021/08/16 01:11:19;;;;;;;0.20;0.20;;;;;;;14.89;65.57;98741.25;5092343;28;20036;-63
2021/08/16 01:13:47;;;;;;;0.20;0.20;;;;;;;14.99;65.66;98737.72;5092255;28;20048;-64
2021/08/16 01:16:15;;;;;;;0.20;0.20;;;;;;;15.09;65.52;98736.94;5092264;28;20044;-64
2021/08/16 01:18:41;;;;;;;0.60;0.60;;;;;;;15.17;65.05;98744.75;5092324;28;20395;-63
2021/08/16 01:21:09;;;;;;;0.20;0.20;;;;;;;15.32;64.93;98744.84;5092392;28;20089;-64
2021/08/16 01:23:36;;;;;;;0.10;0.10;;;;;;;16.03;63.59;98746.31;5092257;28;20083;-64
2021/08/16 01:26:01;;;;;;;0.35;0.35;;;;;;;17.91;59.00;98747.59;5091965;28;20048;-63
2021/08/16 01:28:27;;;;;;;0.20;0.20;;;;;;;20.04;54.25;98732.38;5092543;28;20498;-65
2021/08/16 01:30:59;;;;;;;0.10;0.10;;;;;;;21.93;51.05;98739.81;5092456;28;20545;-64
2021/08/16 01:33:26;;;;;;;0.10;0.10;;;;;;;23.56;48.34;98733.41;5092040;28;20047;-64
2021/08/16 01:35:52;;;;;;;0.20;0.20;;;;;;;25.01;46.36;98730.66;5073568;28;20048;-63
2021/08/16 01:38:20;;;;;;;0.20;0.20;;;;;;;26.27;44.44;98729.53;5091909;28;20044;-67
2021/08/16 01:40:46;;;;;;;0.17;0.17;;;;;;;27.15;43.68;98727.66;5091860;28;20105;-66
2021/08/16 01:43:12;;;;;;;0.25;0.22;;;;;;;27.99;42.89;98732.16;5092019;28;20036;-68
2021/08/16 01:45:38;;;;;;;0.10;0.10;;;;;;;28.71;42.70;98739.22;5091994;28;20047;-67
2021/08/16 01:48:04;;;;;;;0.10;0.10;;;;;;;29.31;42.10;98740.19;5092147;28;20032;-66
2021/08/16 01:50:30;;;;;;;0.35;0.35;;;;;;;29.94;41.60;98735.75;5092661;28;20044;-69
2021/08/16 01:52:56;;;;;;;0.10;0.10;;;;;;;30.49;41.15;98733.03;5092375;28;20138;-67
2021/08/16 01:55:22;;;;;;;0.30;0.30;;;;;;;30.89;40.99;98736.72;5091757;28;20044;-66
2021/08/16 01:57:48;;;;;;;0.40;0.40;;;;;;;31.35;40.74;98733.97;5092280;28;20430;-69
2021/08/16 02:00:14;;;;;;;0.10;0.10;;;;;;;31.76;40.52;98730.69;5097587;28;20397;-68
2021/08/16 02:02:40;;;;;;;0.10;0.10;;;;;;;32.14;40.46;98734.56;5097821;28;20043;-72
2021/08/16 02:05:06;;;;;;;0.10;0.10;;;;;;;32.57;40.00;98731.53;5074934;28;20410;-68
2021/08/16 02:07:32;;;;;;;0.10;0.10;;;;;;;33.12;39.59;98739.56;5095927;28;20066;-66
2021/08/16 02:09:58;;;;;;;0.10;0.10;;;;;;;33.63;38.55;98738.09;5095271;28;20036;-66
2021/08/16 02:12:23;;;;;;;0.10;0.10;;;;;;;34.14;38.01;98733.66;5095466;28;21046;-67
2021/08/16 02:14:49;;;;;;;0.10;0.10;;;;;;;34.56;38.05;98727.44;5095528;28;20048;-66
2021/08/16 02:17:15;;;;;;;0.10;0.10;;;;;;;34.97;37.58;98734.16;5095558;28;20044;-66
2021/08/16 02:19:41;;;;;;;0.17;0.17;;;;;;;35.18;37.30;98728.53;5095589;28;20097;-65
2021/08/16 02:22:07;;;;;;;0.20;0.20;;;;;;;35.37;37.24;98732.31;5095769;28;20051;-66
2021/08/16 02:24:33;;;;;;;0.08;0.08;;;;;;;35.60;36.93;98732.75;5094968;28;20418;-67
2021/08/16 02:26:58;;;;;;;0.10;0.10;;;;;;;36.00;36.78;98732.78;5094958;28;20040;-65
2021/08/16 02:29:24;;;;;;;0.10;0.10;;;;;;;36.59;36.24;98735.16;5095468;28;20136;-66
2021/08/16 02:31:50;;;;;;;0.10;0.10;;;;;;;37.13;35.39;98740.69;5095561;28;20044;-66
2021/08/16 02:34:16;;;;;;;0.10;0.10;;;;;;;37.53;35.24;98734.78;5094823;28;20078;-66
2021/08/16 02:36:41;;;;;;;0.20;0.20;;;;;;;37.83;34.56;98739.88;5094974;28;20048;-67
2021/08/16 02:39:07;;;;;;;0.10;0.10;;;;;;;38.10;34.55;98750.69;5095085;28;20448;-66
2021/08/16 02:41:33;;;;;;;0.10;0.10;;;;;;;38.41;33.96;98747.16;5094927;28;20040;-66
2021/08/16 02:43:59;;;;;;;0.10;0.10;;;;;;;38.69;33.95;98752.63;5096407;28;20044;-67
2021/08/16 02:46:25;;;;;;;0.20;0.20;;;;;;;38.90;33.72;98747.84;5099458;28;20047;-65
2021/08/16 02:48:51;;;;;;;0.15;0.15;;;;;;;39.12;33.50;98748.44;5095289;28;20503;-66
2021/08/16 02:51:17;;;;;;;0.10;0.10;;;;;;;39.35;33.26;98741.94;5094779;28;20051;-66
2021/08/16 02:53:43;;;;;;;0.10;0.10;;;;;;;39.54;32.97;98746.19;5094708;28;20051;-64
2021/08/16 02:56:09;;;;;;;0.10;0.10;;;;;;;39.82;32.75;98757.72;5076401;28;20134;-66
2021/08/16 02:58:34;;;;;;;0.20;0.20;;;;;;;40.00;32.52;98751.66;5095039;28;20066;-65
2021/08/16 03:01:00;;;;;;;0.28;0.28;;;;;;;40.13;32.55;98749.81;5076724;28;20032;-66
2021/08/16 03:03:28;;;;;;;0.10;0.10;;;;;;;40.29;32.37;98754.88;5094654;28;20583;-66
2021/08/16 03:05:53;;;;;;;0.10;0.10;;;;;;;40.56;32.07;98748.25;5093664;28;20040;-65
2021/08/16 03:08:19;;;;;;;0.32;0.30;;;;;;;40.94;31.51;98745.03;5094857;28;20048;-65
2021/08/16 03:10:46;;;;;;;0.10;0.10;;;;;;;41.36;30.86;98744.56;5076055;28;20128;-67
2021/08/16 03:13:12;;;;;;;0.45;0.45;;;;;;;41.68;30.88;98753.28;5094257;28;20094;-65
2021/08/16 03:15:38;;;;;;;0.30;0.30;;;;;;;41.80;30.61;98748.06;5094177;28;20059;-66
2021/08/16 03:18:04;;;;;;;0.20;0.20;;;;;;;42.18;30.17;98751.28;5094733;28;20044;-65
2021/08/16 03:20:30;;;;;;;0.20;0.20;;;;;;;43.04;29.09;98750.19;5094185;28;20123;-66
2021/08/16 03:22:55;;;;;;;0.10;0.10;;;;;;;43.91;28.51;98746.22;5093872;28;20479;-66
2021/08/16 03:25:21;;;;;;;0.10;0.10;;;;;;;43.91;28.94;98752.00;5094212;28;20051;-66
2021/08/16 03:27:47;;;;;;;0.10;0.10;;;;;;;43.85;28.67;98748.09;5094105;28;20047;-67
2021/08/16 03:30:14;;;;;;;0.13;0.13;;;;;;;43.77;28.74;98743.78;5093881;28;20052;-68
2021/08/16 03:32:40;;;;;;;0.10;0.10;;;;;;;43.72;29.21;98742.28;5094266;28;20048;-66
2021/08/16 03:35:06;;;;;;;0.20;0.20;;;;;;;43.67;29.14;98742.88;5093333;28;20050;-67
2021/08/16 03:37:34;;;;;;;0.10;0.10;;;;;;;43.53;29.04;98749.91;5092992;28;20094;-65
2021/08/16 03:40:01;;;;;;;0.10;0.10;;;;;;;43.60;29.12;98748.88;5092260;28;20079;-66
2021/08/16 03:42:26;;;;;;;0.10;0.10;;;;;;;43.65;28.68;98738.81;5093965;28;20052;-65
2021/08/16 03:44:53;;;;;;;0.10;0.10;;;;;;;43.74;29.17;98736.81;5075310;28;20043;-66
2021/08/16 03:47:18;;;;;;;0.10;0.10;;;;;;;43.94;28.72;98744.50;5093438;28;20051;-66
2021/08/16 03:49:44;;;;;;;0.10;0.10;;;;;;;44.13;28.57;98742.59;5093358;28;20410;-65
2021/08/16 03:52:10;;;;;;;0.10;0.10;;;;;;;43.98;28.30;98741.47;5093379;28;20048;-66
2021/08/16 03:54:36;;;;;;;0.17;0.17;;;;;;;44.11;28.51;98742.25;5093600;28;20044;-65
2021/08/16 03:57:02;;;;;;;0.10;0.10;;;;;;;44.39;27.96;98740.47;5093427;28;20388;-64
2021/08/16 03:59:28;;;;;;;0.10;0.10;;;;;;;44.61;27.84;98746.28;5075160;28;20094;-65
2021/08/16 04:01:54;;;;;;;0.22;0.22;;;;;;;44.81;27.77;98745.19;5093934;28;20040;-66
2021/08/16 04:04:19;;;;;;;0.22;0.22;;;;;;;45.02;27.16;98758.03;5095651;28;20096;-66
2021/08/16 04:06:45;;;;;;;0.10;0.10;;;;;;;45.12;26.99;98739.47;5101802;28;20040;-67
2021/08/16 04:09:11;;;;;;;0.17;0.17;;;;;;;45.29;26.85;98750.81;5094248;28;20044;-67
2021/08/16 04:11:38;;;;;;;0.10;0.10;;;;;;;45.38;26.58;98738.47;5093677;28;20443;-66
2021/08/16 04:14:05;;;;;;;7.78;0.50;;;;;;;45.59;26.70;98733.94;5093191;28;20494;-67
2021/08/16 04:16:30;;;;;;;0.10;0.10;;;;;;;45.71;26.44;98744.59;5093322;28;20044;-67
2021/08/16 04:18:57;;;;;;;0.20;0.20;;;;;;;46.01;26.54;98745.03;5093433;28;20069;-68
2021/08/16 04:21:23;;;;;;;0.13;0.13;;;;;;;46.41;25.60;98744.19;5092638;28;20064;-67
2021/08/16 04:23:49;;;;;;;0.10;0.10;;;;;;;46.65;25.41;98746.47;5074536;28;20422;-68
2021/08/16 04:26:14;;;;;;;0.15;0.15;;;;;;;46.84;25.16;98745.16;5092908;28;20036;-66
2021/08/16 04:28:41;;;;;;;0.20;0.20;;;;;;;47.00;25.01;98741.13;5092014;28;20039;-66
2021/08/16 04:31:06;;;;;;;0.20;0.20;;;;;;;47.12;25.06;98738.50;5092798;28;20046;-67
2021/08/16 04:33:34;;;;;;;0.20;0.20;;;;;;;47.23;24.79;98741.69;5091023;28;20036;-66
2021/08/16 04:36:00;;;;;;;0.20;0.20;;;;;;;47.14;24.85;98741.75;5091812;28;20523;-65
2021/08/16 04:38:26;;;;;;;0.10;0.10;;;;;;;47.08;25.02;98729.97;5092593;28;20078;-67
2021/08/16 04:40:54;;;;;;;0.20;0.20;;;;;;;47.14;24.86;98727.19;5092959;28;20131;-67
2021/08/16 04:43:20;;;;;;;0.20;0.20;;;;;;;47.18;25.18;98722.81;5093035;28;20036;-66
2021/08/16 04:45:46;;;;;;;0.20;0.20;;;;;;;47.48;24.60;98725.19;5092615;28;20172;-67
2021/08/16 04:48:14;;;;;;;0.20;0.20;;;;;;;47.63;24.38;98737.69;5092451;28;20148;-68
2021/08/16 04:50:40;;;;;;;0.22;0.22;;;;;;;47.61;24.22;98737.41;5057934;28;20542;-68
2021/08/16 04:53:06;;;;;;;0.20;0.20;;;;;;;47.61;24.16;98728.66;5089092;28;20049;-66
2021/08/16 04:55:31;;;;;;;0.30;0.30;;;;;;;47.54;24.16;98729.81;5080439;28;20521;-67
2021/08/16 04:57:57;;;;;;;0.20;0.20;;;;;;;47.47;24.23;98732.28;5082870;28;20089;-68
2021/08/16 05:00:32;;;;;;;0.13;0.13;;;;;;;47.26;24.31;98740.72;5080716;28;20048;-68
2021/08/16 05:02:59;;;;;;;0.20;0.20;;;;;;;45.92;25.80;98725.50;5079933;28;20110;-66
2021/08/16 05:05:28;;;;;;;0.15;0.15;;;;;;;42.95;28.88;98719.06;5079669;28;20048;-66
2021/08/16 05:07:56;;;;;;;0.15;0.15;;;;;;;39.45;32.70;98704.91;5079844;28;20067;-66
2021/08/16 05:10:23;;;;;;;0.10;0.10;;;;;;;36.74;36.36;98709.38;5080096;28;20044;-66
2021/08/16 05:12:51;;;;;;;0.10;0.10;;;;;;;34.61;38.12;98706.28;5087132;28;20047;-67
2021/08/16 05:15:18;;;;;;;0.10;0.10;;;;;;;33.03;40.12;98713.47;5081897;28;20536;-66
2021/08/16 05:17:45;;;;;;;0.30;0.30;;;;;;;31.76;41.28;98707.97;5080983;28;20089;-66
2021/08/16 05:20:11;;;;;;;0.08;0.08;;;;;;;30.79;41.69;98709.75;5062038;28;20445;-65
2021/08/16 05:22:40;;;;;;;0.28;0.28;;;;;;;30.05;41.88;98707.72;5079880;28;20142;-65
2021/08/16 05:25:07;;;;;;;0.20;0.20;;;;;;;29.45;42.11;98708.63;5080446;28;20048;-66
2021/08/16 05:27:33;;;;;;;0.10;0.10;;;;;;;28.96;42.18;98718.19;5081823;28;20131;-66
2021/08/16 05:29:59;;;;;;;0.05;0.05;;;;;;;28.58;41.93;98715.84;5079989;28;20121;-66
2021/08/16 05:32:25;;;;;;;0.40;0.40;;;;;;;28.22;41.67;98709.06;5085550;28;20101;-68
2021/08/16 05:34:51;;;;;;;0.20;0.20;;;;;;;27.68;41.81;98710.97;5089045;28;20454;-66
2021/08/16 05:37:17;;;;;;;0.20;0.20;;;;;;;27.34;41.74;98701.78;5082777;28;20071;-71
2021/08/16 05:39:42;;;;;;;0.80;0.40;;;;;;;27.04;41.58;98703.88;5084316;28;20032;-67
2021/08/16 05:42:08;;;;;;;0.32;0.32;;;;;;;26.87;41.47;98710.50;5084128;28;20040;-67
2021/08/16 05:44:34;;;;;;;0.10;0.10;;;;;;;26.65;41.24;98708.84;5093214;28;20044;-68
2021/08/16 05:47:05;;;;;;;0.38;0.38;;;;;;;26.37;41.28;98706.63;5085744;28;20082;-67
2021/08/16 05:49:31;;;;;;;1.08;0.75;;;;;;;26.13;40.95;98712.91;5088419;28;20044;-67
2021/08/16 05:51:57;;;;;;;0.00;0.00;;;;;;;25.91;41.05;98705.56;5086599;28;20460;-68
2021/08/16 05:54:23;;;;;;;0.10;0.10;;;;;;;25.79;41.02;98701.47;5085464;28;20036;-68
2021/08/16 05:56:48;;;;;;;0.08;0.08;;;;;;;25.59;40.93;98702.25;5083515;28;20411;-68
2021/08/16 05:59:14;;;;;;;0.20;0.20;;;;;;;25.48;40.94;98702.63;5067474;28;20079;-67
2021/08/16 06:01:40;;;;;;;0.10;0.10;;;;;;;25.36;40.69;98702.50;5091091;28;20132;-68
2021/08/16 06:04:07;;;;;;;0.30;0.30;;;;;;;25.26;40.36;98700.84;5084687;28;20039;-67
2021/08/16 06:06:35;;;;;;;0.13;0.13;;;;;;;25.21;40.31;98697.41;5093455;28;20040;-67
2021/08/16 06:09:01;;;;;;;0.30;0.30;;;;;;;25.17;40.06;98698.06;5097281;28;20043;-66
2021/08/16 06:11:27;;;;;;;0.63;0.30;;;;;;;25.18;39.85;98696.91;5085972;28;20111;-68
2021/08/16 06:13:54;;;;;;;0.10;0.10;;;;;;;25.25;39.66;98701.19;5083108;28;20791;-68
2021/08/16 06:16:20;;;;;;;0.20;0.20;;;;;;;25.24;39.06;98696.75;5083639;28;20035;-66
2021/08/16 06:18:45;;;;;;;0.22;0.22;;;;;;;25.14;39.05;98697.91;5084640;28;20044;-66
2021/08/16 06:21:11;;;;;;;0.30;0.30;;;;;;;25.06;39.22;98693.97;5082806;28;20070;-65
2021/08/16 06:23:37;;;;;;;0.38;0.38;;;;;;;25.01;39.05;98696.94;5083795;28;20094;-65
2021/08/16 06:26:04;;;;;;;0.00;0.00;;;;;;;24.95;39.22;98682.25;5084370;28;20063;-66
2021/08/16 06:28:31;;;;;;;0.10;0.10;;;;;;;24.96;38.73;98674.66;5082493;28;20042;-65
2021/08/16 06:30:57;;;;;;;0.10;0.10;;;;;;;25.01;38.82;98680.94;5083736;28;20048;-67
2021/08/16 06:33:23;;;;;;;0.30;0.30;;;;;;;25.03;38.89;98683.41;5086549;28;20049;-66
2021/08/16 06:35:50;;;;;;;0.10;0.10;;;;;;;25.09;38.52;98678.41;5082086;28;20506;-65
2021/08/16 06:38:22;;;;;;;0.00;0.00;;;;;;;25.16;38.24;98681.53;5083732;28;20040;-66
2021/08/16 06:40:49;;;;;;;0.10;0.10;;;;;;;25.18;38.33;98680.06;5085014;28;20031;-65
2021/08/16 06:43:15;;;;;;;0.10;0.10;;;;;;;25.19;38.37;98678.06;5082977;28;20407;-65
2021/08/16 06:45:41;;;;;;;0.63;0.63;;;;;;;25.23;38.38;98678.22;5090432;28;20047;-67
2021/08/16 06:48:07;;;;;;;0.10;0.10;;;;;;;25.20;38.38;98671.28;5085072;28;20040;-66
2021/08/16 06:50:33;;;;;;;0.10;0.10;;;;;;;25.12;38.21;98677.78;5081729;28;20178;-67
2021/08/16 06:52:58;;;;;;;0.10;0.10;;;;;;;25.06;38.34;98668.69;5085077;28;20106;-65
2021/08/16 06:55:24;;;;;;;0.20;0.20;;;;;;;24.99;38.19;98666.38;5090118;28;20052;-67
2021/08/16 06:57:50;;;;;;;0.20;0.20;;;;;;;24.95;38.44;98667.41;5083624;28;20136;-65
2021/08/16 07:00:16;;;;;;;0.15;0.15;;;;;;;24.98;38.55;98663.91;5083320;28;20032;-67
2021/08/16 07:02:41;;;;;;;0.00;0.00;;;;;;;25.06;38.34;98665.88;5082099;28;20093;-66
2021/08/16 07:05:09;;;;;;;0.10;0.10;;;;;;;25.15;37.92;98660.25;5080380;28;20048;-66
2021/08/16 07:07:34;;;;;;;0.20;0.20;;;;;;;25.15;37.75;98663.88;5082122;28;20506;-67
2021/08/16 07:10:00;;;;;;;0.28;0.25;;;;;;;25.23;37.66;98658.56;5083926;28;20036;-67
2021/08/16 07:12:26;;;;;;;0.20;0.20;;;;;;;25.33;37.76;98646.97;5083769;28;20565;-69
2021/08/16 07:14:52;;;;;;;0.13;0.13;;;;;;;25.27;37.80;98660.34;5083894;28;20155;-67
2021/08/16 07:17:17;;;;;;;0.25;0.20;;;;;;;25.24;37.59;98654.59;5083975;28;20460;-69
2021/08/16 07:19:43;;;;;;;0.80;0.30;;;;;;;25.29;37.42;98648.78;5090182;28;20059;-66
2021/08/16 07:22:10;;;;;;;0.10;0.10;;;;;;;25.28;37.80;98652.72;5083865;28;20131;-68
2021/08/16 07:24:36;;;;;;;0.10;0.10;;;;;;;25.26;37.83;98649.44;5087670;28;20113;-67
2021/08/16 07:27:03;;;;;;;0.52;0.20;;;;;;;25.22;37.78;98646.50;5084194;28;20041;-69
2021/08/16 07:29:30;;;;;;;0.10;0.10;;;;;;;25.21;37.59;98644.03;5082760;28;20042;-68
2021/08/16 07:31:56;;;;;;;0.25;0.25;;;;;;;25.19;37.59;98642.38;5087712;28;20532;-66
2021/08/16 07:34:23;;;;;;;0.22;0.20;;;;;;;25.19;37.56;98635.91;5090807;28;20072;-67
2021/08/16 07:36:50;;;;;;;0.10;0.10;;;;;;;25.24;37.89;98637.75;5085261;28;20409;-67
2021/08/16 07:39:16;;;;;;;0.20;0.20;;;;;;;25.25;37.52;98636.56;5080469;28;20556;-68
2021/08/16 07:41:42;;;;;;;0.15;0.15;;;;;;;25.26;37.84;98639.03;5081128;28;20095;-67
2021/08/16 07:44:08;;;;;;;0.75;0.35;;;;;;;25.25;37.38;98645.81;5079920;28;20036;-68
2021/08/16 07:46:34;;;;;;;3.85;1.90;;;;;;;25.17;37.72;98633.44;5082889;28;20109;-69
2021/08/16 07:49:00;;;;;;;1.02;0.30;;;;;;;25.10;37.65;98632.31;5082662;28;20120;-68
2021/08/16 07:51:26;;;;;;;0.55;0.17;;;;;;;25.07;37.93;98636.63;5084794;28;20036;-68
2021/08/16 07:53:51;;;;;;;0.10;0.10;;;;;;;25.09;37.74;98641.91;5090725;28;20106;-68
2021/08/16 07:56:17;;;;;;;1.08;0.68;;;;;;;25.09;37.86;98633.47;5088110;28;20055;-66
2021/08/16 07:58:43;;;;;;;0.40;0.05;;;;;;;25.06;37.79;98629.38;5088020;28;20040;-69
2021/08/16 08:01:08;;;;;;;1.50;0.35;;;;;;;25.04;37.97;98628.88;5086611;28;20036;-67
2021/08/16 08:03:34;;;;;;;0.20;0.20;;;;;;;24.99;37.69;98621.44;5079588;28;20421;-67
2021/08/16 08:06:00;;;;;;;0.10;0.10;;;;;;;25.00;37.93;98623.09;5081082;28;20033;-67
2021/08/16 08:08:26;;;;;;;0.10;0.10;;;;;;;25.01;37.96;98615.50;5081698;28;20078;-69
2021/08/16 08:10:53;;;;;;;1.25;0.40;;;;;;;25.01;37.71;98619.16;5092245;28;20083;-68
2021/08/16 08:13:20;;;;;;;0.20;0.20;;;;;;;25.01;37.99;98619.16;5086094;28;20376;-68
2021/08/16 08:15:46;;;;;;;0.10;0.10;;;;;;;24.99;37.88;98632.69;5081677;28;20047;-68
2021/08/16 08:18:12;;;;;;;0.10;0.10;;;;;;;24.94;38.06;98624.44;5083060;28;20050;-69
2021/08/16 08:20:38;;;;;;;0.10;0.10;;;;;;;24.92;37.74;98623.13;5081431;28;20074;-66
2021/08/16 08:23:05;;;;;;;0.17;0.17;;;;;;;24.95;37.94;98620.47;5066339;28;20901;-68
2021/08/16 08:25:35;;;;;;;0.10;0.10;;;;;;;24.94;37.99;98604.78;5082136;28;20036;-72
2021/08/16 08:28:01;;;;;;;0.20;0.20;;;;;;;25.03;37.96;98618.81;5063602;28;20051;-67
2021/08/16 08:30:27;;;;;;;0.10;0.10;;;;;;;25.06;37.64;98615.31;5085542;28;20040;-69
2021/08/16 08:32:56;;;;;;;0.10;0.10;;;;;;;25.11;37.80;98612.31;5080852;28;20085;-67
2021/08/16 08:35:23;;;;;;;0.10;0.10;;;;;;;25.15;37.84;98612.47;5084881;28;20428;-68
2021/08/16 08:37:50;;;;;;;0.25;0.15;;;;;;;25.16;37.70;98605.69;5101993;28;20024;-67
2021/08/16 08:40:17;;;;;;;0.20;0.20;;;;;;;25.12;37.73;98601.94;5099949;28;20070;-66
2021/08/16 08:42:54;;;;;;;0.10;0.10;;;;;;;25.11;37.66;98609.50;5100894;28;20044;-66
2021/08/16 08:45:25;;;;;;;0.30;0.30;;;;;;;25.12;37.50;98590.69;5101608;28;20024;-66
2021/08/16 08:47:52;;;;;;;0.10;0.10;;;;;;;25.12;37.51;98596.31;5104704;28;20044;-67
2021/08/16 08:50:19;;;;;;;0.10;0.10;;;;;;;25.11;37.76;98603.06;5106177;28;20043;-66
2021/08/16 08:52:45;;;;;;;0.22;0.22;;;;;;;25.09;37.65;98603.41;5081638;28;20119;-66
2021/08/16 08:55:13;;;;;;;0.20;0.20;;;;;;;25.08;38.03;98584.91;5083965;28;20047;-67
2021/08/16 08:57:40;;;;;;;0.55;0.30;;;;;;;25.08;38.12;98584.91;5083798;28;20053;-67
2021/08/16 09:00:08;;;;;;;0.45;0.28;;;;;;;25.04;38.00;98586.72;5083270;28;20094;-66
2021/08/16 09:02:35;;;;;;;0.15;0.15;;;;;;;25.03;37.91;98587.91;5083105;28;20506;-71
2021/08/16 09:05:03;;;;;;;0.10;0.10;;;;;;;25.00;37.98;98582.97;5081564;28;20040;-66
2021/08/16 09:07:30;;;;;;;0.90;0.20;;;;;;;24.98;37.92;98586.13;5081633;28;20613;-67
2021/08/16 09:09:56;;;;;;;0.30;0.30;;;;;;;25.02;38.28;98597.50;5080750;28;20499;-67
2021/08/16 09:12:29;;;;;;;0.20;0.20;;;;;;;25.05;38.12;98581.97;5078794;28;20048;-66
2021/08/16 09:14:54;;;;;;;0.38;0.38;;;;;;;25.02;37.95;98592.69;5085061;28;20394;-67
2021/08/16 09:17:34;;;;;;;0.10;0.10;;;;;;;25.06;38.02;98577.97;5084369;28;20036;-68
2021/08/16 09:20:00;;;;;;;0.10;0.10;;;;;;;25.14;38.23;98579.94;5084264;28;20040;-68
2021/08/16 09:22:31;;;;;;;0.10;0.10;;;;;;;25.23;37.66;98577.06;5084008;28;20094;-68
2021/08/16 09:25:10;;;;;;;0.35;0.35;;;;;;;25.29;37.67;98570.91;5086018;28;20052;-68
2021/08/16 09:27:46;;;;;;;0.77;0.50;;;;;;;25.33;37.91;98569.09;5087019;28;20036;-66
2021/08/16 09:30:25;;;;;;;0.28;0.28;;;;;;;25.35;38.01;98560.34;5084426;28;20511;-70
2021/08/16 09:32:52;;;;;;;0.10;0.10;;;;;;;25.34;37.84;98575.56;5093080;28;20047;-68
2021/08/16 09:35:19;;;;;;;0.10;0.10;;;;;;;25.37;37.63;98574.88;5090230;28;20131;-69
2021/08/16 09:37:54;;;;;;;0.80;0.40;;;;;;;25.38;38.14;98564.47;5087064;28;20047;-67
2021/08/16 09:40:20;;;;;;;0.00;0.00;;;;;;;25.37;38.06;98569.25;5085432;28;20040;-67
2021/08/16 09:42:51;;;;;;;0.10;0.10;;;;;;;25.38;37.67;98572.88;5086010;28;20047;-67
2021/08/16 09:45:31;;;;;;;0.13;0.13;;;;;;;25.42;38.10;98571.06;5083740;28;20036;-67
2021/08/16 09:47:59;;;;;;;0.15;0.15;;;;;;;25.46;37.67;98561.59;5085153;28;20131;-69
2021/08/16 09:50:44;;;;;;;0.10;0.10;;;;;;;25.46;38.04;98567.22;5086790;28;20036;-71
2021/08/16 09:53:19;;;;;;;0.17;0.17;;;;;;;25.46;37.85;98555.16;5083324;28;20048;-71
2021/08/16 09:55:47;;;;;;;0.13;0.13;;;;;;;25.51;38.13;98558.59;5084088;28;20043;-68
2021/08/16 09:58:14;;;;;;;0.28;0.28;;;;;;;25.55;37.87;98552.28;5080251;28;20040;-66
2021/08/16 10:00:41;;;;;;;0.15;0.15;;;;;;;25.56;37.68;98549.16;5067208;28;20044;-65
2021/08/16 10:03:08;;;;;;;0.10;0.10;;;;;;;25.61;38.02;98560.19;5086142;28;20111;-67
2021/08/16 10:05:38;;;;;;;1.55;0.22;;;;;;;25.68;37.67;98548.41;5087213;28;20391;-68
2021/08/16 10:08:10;;;;;;;0.10;0.10;;;;;;;25.70;37.89;98549.69;5065312;28;20494;-67
2021/08/16 10:10:37;;;;;;;0.20;0.20;;;;;;;25.73;37.64;98542.56;5086509;28;20045;-67
2021/08/16 10:13:05;;;;;;;0.15;0.15;;;;;;;25.76;37.87;98532.63;5092292;28;20092;-68
2021/08/16 10:15:46;;;;;;;0.10;0.10;;;;;;;25.75;37.91;98533.78;5089048;28;20036;-68
2021/08/16 10:18:19;;;;;;;0.28;0.28;;;;;;;25.75;37.66;98533.78;5091015;28;20395;-66
2021/08/16 10:20:46;;;;;;;;;;;;;;;25.76;37.82;98527.81;5085864;28;20036;-66
2021/08/16 10:23:19;;;;;;;0.25;0.10;;;;;;;25.76;37.86;98522.19;5084206;28;19978;-66
2021/08/16 10:25:47;;;;;;;0.20;0.20;;;;;;;25.77;37.62;98526.66;5083424;28;20414;-68
2021/08/16 10:28:35;;;;;;;0.10;0.10;;;;;;;25.80;37.34;98525.97;5074162;28;20036;-66
2021/08/16 10:31:24;;;;;;;4.53;0.20;;;;;;;25.81;37.52;98524.81;5085211;28;20147;-67
2021/08/16 10:33:49;;;;;;;0.10;0.10;;;;;;;25.84;37.42;98526.94;5086227;28;20105;-70
2021/08/16 10:36:20;;;;;;;1.30;0.43;;;;;;;25.91;37.55;98519.91;5066174;28;20058;-67
2021/08/16 10:38:54;;;;;;;1.20;0.55;;;;;;;25.91;37.61;98515.09;5082630;28;20505;-66
2021/08/16 10:41:27;;;;;;;0.10;0.10;;;;;;;25.93;37.16;98517.56;5083130;28;20046;-67
2021/08/16 10:43:53;;;;;;;0.20;0.20;;;;;;;25.93;37.54;98520.38;5084929;28;20032;-67
2021/08/16 10:46:22;;;;;;;0.10;0.10;;;;;;;25.99;37.30;98514.25;5082174;28;20046;-70
2021/08/16 10:49:12;;;;;;;0.10;0.10;;;;;;;26.02;37.38;98521.19;5084784;28;20040;-67
2021/08/16 10:51:46;;;;;;;0.28;0.25;;;;;;;26.05;37.28;98509.25;5081763;28;20051;-66
2021/08/16 10:54:29;;;;;;;0.10;0.10;;;;;;;26.03;37.43;98501.16;5080560;28;20032;-70
2021/08/16 10:56:56;;;;;;;0.47;0.20;;;;;;;26.03;37.42;98503.97;5084585;28;20136;-66
2021/08/16 10:59:24;;;;;;;1.98;0.20;;;;;;;26.06;37.05;98499.63;5084269;28;20426;-66
2021/08/16 11:01:51;;;;;;;0.25;0.25;;;;;;;26.11;37.22;98507.84;5082501;28;20127;-68
2021/08/16 11:04:28;;;;;;;0.17;0.17;;;;;;;26.16;37.11;98498.38;5084966;28;20030;-69
2021/08/16 11:06:56;;;;;;;0.63;0.25;;;;;;;26.20;36.92;98491.69;5083859;28;20521;-68
2021/08/16 11:09:26;;;;;;;0.20;0.20;;;;;;;26.26;37.13;98494.31;5082584;28;20044;-66
2021/08/16 11:12:02;;;;;;;0.90;0.20;;;;;;;26.28;36.55;98494.75;5081938;28;20033;-68
2021/08/16 11:14:30;;;;;;;0.05;0.05;;;;;;;26.27;36.57;98495.97;5084261;28;20040;-69
2021/08/16 11:16:56;;;;;;;0.10;0.10;;;;;;;26.27;36.92;98493.16;5081380;28;20089;-67
2021/08/16 11:19:24;;;;;;;0.10;0.10;;;;;;;26.29;36.52;98485.97;5079765;28;20835;-66
2021/08/16 11:22:01;;;;;;;0.85;0.85;;;;;;;26.32;36.46;98495.72;5091408;28;20047;-66
2021/08/16 11:24:37;;;;;;;0.10;0.10;;;;;;;26.33;36.18;98491.75;5073765;28;20055;-67
2021/08/16 11:27:08;;;;;;;1.13;0.20;;;;;;;26.34;36.15;98491.41;5083517;28;20064;-67
2021/08/16 11:29:34;;;;;;;0.15;0.15;;;;;;;26.36;35.99;98496.69;5081993;28;20097;-67
2021/08/16 11:32:02;;;;;;;0.60;0.60;;;;;;;26.33;36.09;98486.13;5082588;28;20040;-68
2021/08/16 11:34:50;;;;;;;0.80;0.30;;;;;;;26.36;36.34;98485.41;5064814;28;20409;-67